In Rescue
 
Open Full Screen Window  High Contrast Mode
Wind Gusting 14 knots
08
April 20, 2024 8:04 AM CDT
Weather Information
Wind Direction
  300 °
Wind Speed
  08 kt (9 mph)
Wind Gust
  14 kt (16 mph)
Altimeter
30.20 in
Visibility
10 SM
Temperature
00° C
32° F
Dewpoint
-05° C
23° F
Humidity
69%
Sky Condition
Overcast @ 2,800 ft
MVFR

METAR KHZX 201304Z AUTO 30008G14KT 10SM OVC028 00/M05 A3020 RMK AO2

FAA Disclaimer: The data displayed is for advisory purposes only and is not to be used for flight planning or operations.